Hartford, Connecticut
Traffic Map
Current Weather Conditions
Hartford, Connecticut
Clear
Clear
23°
Feels Like: 23°
Wind Chill: 23° Ceiling: Unl
Heat Index: 23° Visibility: 10mi
Dew Point: 19° Wind: 0mph
Humidity: 81% Direction: ° ()
Pressure: 29.82in Gusts: 0mph
Raw Report DataKHFD 020153Z 00000KT 10SM CLR 23/19 A2982 RMK AO2 SLP097 T02280194
Traffic Incident Summary
Active as of:
Severity:
Category:
InformationThere was an issue retrieving the traffic information for this location. Please try a different location or try again shortly.
Advertisements
Track Severe Weather on mobile